createdAt,value
2023-05-08T00:01:11.650Z,48.55
2023-05-08T00:04:14.062Z,49.04
2023-05-08T00:07:16.453Z,48.99
2023-05-08T00:10:18.689Z,49.26
2023-05-08T00:13:21.116Z,49.15
2023-05-08T00:16:23.569Z,49.30
2023-05-08T00:19:25.916Z,48.94
2023-05-08T00:22:28.082Z,48.83
2023-05-08T00:25:31.984Z,48.80
2023-05-08T00:28:34.255Z,48.50
2023-05-08T00:31:36.477Z,48.64
2023-05-08T00:34:38.698Z,48.49
2023-05-08T00:37:41.398Z,48.57
2023-05-08T00:40:43.658Z,48.58
2023-05-08T00:43:45.956Z,48.33
2023-05-08T00:46:48.532Z,48.48
2023-05-08T00:49:53.499Z,48.07
2023-05-08T00:52:56.852Z,48.40
2023-05-08T00:55:59.556Z,48.34
2023-05-08T00:59:01.863Z,48.32
2023-05-08T01:02:04.190Z,48.37
2023-05-08T01:05:06.718Z,48.29
2023-05-08T01:08:08.940Z,48.50
2023-05-08T01:11:34.078Z,48.52
2023-05-08T01:14:55.488Z,48.89
2023-05-08T01:18:28.463Z,48.59
2023-05-08T01:21:58.835Z,48.36
2023-05-08T01:25:16.274Z,48.58
2023-05-08T01:28:30.611Z,48.38
2023-05-08T01:32:03.489Z,48.56
2023-05-08T01:35:34.619Z,48.62
2023-05-08T01:38:51.806Z,48.69
2023-05-08T01:42:00.548Z,49.84
2023-05-08T01:45:13.114Z,49.97
2023-05-08T01:48:44.871Z,50.25
2023-05-08T01:51:49.382Z,50.39
2023-05-08T01:55:04.688Z,50.19
2023-05-08T01:58:08.938Z,50.83
2023-05-08T02:01:12.962Z,50.84
2023-05-08T02:04:16.448Z,50.79
2023-05-08T02:07:21.907Z,51.01
2023-05-08T02:10:25.164Z,51.05
2023-05-08T02:13:27.797Z,51.36
2023-05-08T02:16:30.754Z,51.83
2023-05-08T02:19:32.899Z,51.77
2023-05-08T02:22:35.296Z,51.77
2023-05-08T02:25:37.840Z,51.65
2023-05-08T02:28:40.272Z,51.83
2023-05-08T02:31:43.243Z,51.62
2023-05-08T02:34:58.797Z,51.19
2023-05-08T02:38:10.603Z,51.35
2023-05-08T02:41:14.262Z,51.71
2023-05-08T02:44:17.157Z,51.56
2023-05-08T02:47:23.034Z,51.66
2023-05-08T02:50:56.091Z,51.76
2023-05-08T02:54:01.300Z,51.92
2023-05-08T02:57:12.081Z,52.08
2023-05-08T03:00:25.797Z,52.12
2023-05-08T03:03:35.620Z,52.81
2023-05-08T03:06:44.667Z,52.36
2023-05-08T03:09:49.245Z,52.48
2023-05-08T03:12:53.465Z,52.84
2023-05-08T03:15:58.578Z,52.96
2023-05-08T03:19:01.999Z,53.35
2023-05-08T03:22:06.330Z,53.42
2023-05-08T03:25:10.612Z,54.19
2023-05-08T03:28:14.863Z,53.65
2023-05-08T03:31:20.913Z,53.47
2023-05-08T03:34:23.343Z,53.41
2023-05-08T03:37:29.924Z,54.07
2023-05-08T03:40:36.856Z,53.50
2023-05-08T03:43:40.089Z,53.77
2023-05-08T03:46:42.670Z,53.47
2023-05-08T03:49:49.754Z,53.51
2023-05-08T03:52:52.900Z,54.01
2023-05-08T03:55:57.120Z,54.34
2023-05-08T03:59:05.407Z,53.86
2023-05-08T04:02:14.135Z,54.20
2023-05-08T04:05:32.206Z,54.30
2023-05-08T04:08:43.418Z,53.94
2023-05-08T04:12:21.354Z,54.08
2023-05-08T04:15:28.454Z,53.76
2023-05-08T04:18:35.115Z,53.87
2023-05-08T04:21:42.537Z,54.22
2023-05-08T04:24:46.945Z,53.83
2023-05-08T04:27:51.376Z,53.97
2023-05-08T04:30:55.713Z,53.68
2023-05-08T04:33:58.269Z,53.91
2023-05-08T04:37:00.994Z,53.80
2023-05-08T04:40:05.227Z,54.32
2023-05-08T04:43:09.238Z,53.35
2023-05-08T04:46:13.111Z,48.52
2023-05-08T04:49:15.511Z,46.28
2023-05-08T04:52:17.948Z,46.27
2023-05-08T04:55:20.323Z,45.20
2023-05-08T04:58:23.127Z,44.98
2023-05-08T05:01:26.967Z,42.87
2023-05-08T05:04:29.949Z,43.30
2023-05-08T05:07:32.788Z,43.31
2023-05-08T05:10:35.415Z,43.05
2023-05-08T05:13:37.761Z,43.25
2023-05-08T05:16:40.179Z,43.05
2023-05-08T05:19:42.901Z,43.45
2023-05-08T05:22:45.318Z,43.36
2023-05-08T05:25:47.587Z,43.42
2023-05-08T05:28:49.885Z,43.87
2023-05-08T05:31:52.301Z,43.54
2023-05-08T05:34:54.901Z,43.97
2023-05-08T05:37:57.515Z,43.68
2023-05-08T05:40:59.849Z,43.52
2023-05-08T05:44:02.462Z,43.28
2023-05-08T05:47:10.230Z,43.00
2023-05-08T05:50:13.849Z,42.48
2023-05-08T05:53:16.491Z,42.53
2023-05-08T05:56:19.032Z,42.81
2023-05-08T05:59:21.377Z,42.82
2023-05-08T06:02:23.777Z,42.93
2023-05-08T06:05:26.039Z,42.97
2023-05-08T06:08:28.872Z,42.92
2023-05-08T06:11:31.773Z,42.67
2023-05-08T06:14:34.198Z,42.43
2023-05-08T06:17:36.667Z,41.91
2023-05-08T06:20:39.192Z,41.95
2023-05-08T06:23:42.760Z,42.27
2023-05-08T06:26:46.770Z,41.76
2023-05-08T06:29:51.767Z,41.96
2023-05-08T06:32:54.056Z,41.90
2023-05-08T06:35:56.492Z,41.34
2023-05-08T06:38:58.699Z,41.16
2023-05-08T06:42:00.958Z,40.65
2023-05-08T06:45:07.578Z,40.91
2023-05-08T06:48:09.838Z,41.10
2023-05-08T06:51:12.134Z,41.07
2023-05-08T06:54:14.411Z,41.23
2023-05-08T06:57:17.021Z,41.61
2023-05-08T07:00:19.395Z,41.10
2023-05-08T07:03:21.665Z,40.11
2023-05-08T07:06:24.029Z,38.93
2023-05-08T07:09:26.298Z,39.23
2023-05-08T07:12:28.573Z,35.82
2023-05-08T07:15:33.806Z,35.72
2023-05-08T07:18:36.060Z,33.35
2023-05-08T07:21:38.813Z,27.56
2023-05-08T07:24:41.107Z,29.56
2023-05-08T07:27:43.490Z,29.45
2023-05-08T07:30:46.092Z,28.10
2023-05-08T07:33:48.350Z,27.55
2023-05-08T07:36:50.703Z,25.41
2023-05-08T07:39:52.926Z,24.06
2023-05-08T07:42:55.198Z,22.85
2023-05-08T07:45:58.177Z,22.10
2023-05-08T07:49:00.841Z,20.66
2023-05-08T07:52:03.333Z,19.91
2023-05-08T07:55:06.151Z,19.72
2023-05-08T07:58:08.426Z,18.92
2023-05-08T08:01:10.931Z,18.60
2023-05-08T08:04:16.643Z,18.92
2023-05-08T08:07:18.978Z,18.46
2023-05-08T08:10:21.191Z,18.44
2023-05-08T08:13:23.634Z,18.42
2023-05-08T08:16:26.145Z,19.16
2023-05-08T08:19:28.352Z,19.01
2023-05-08T08:22:30.705Z,19.63
2023-05-08T08:25:33.044Z,20.72
2023-05-08T08:28:35.175Z,20.86
2023-05-08T08:31:37.551Z,21.97
2023-05-08T08:34:39.959Z,23.22
2023-05-08T08:37:42.401Z,24.92
2023-05-08T08:40:44.696Z,25.34
2023-05-08T08:43:47.002Z,26.12
2023-05-08T08:46:51.742Z,26.46
2023-05-08T08:49:55.038Z,26.48
2023-05-08T08:53:03.321Z,27.54
2023-05-08T08:56:07.325Z,27.16
2023-05-08T08:59:11.734Z,27.46
2023-05-08T09:02:17.905Z,25.99
2023-05-08T09:05:24.301Z,25.71
2023-05-08T09:08:27.349Z,25.99
2023-05-08T09:11:29.717Z,26.13
2023-05-08T09:14:31.933Z,26.58
2023-05-08T09:17:34.172Z,26.59
2023-05-08T09:20:36.628Z,27.25
2023-05-08T09:24:08.188Z,27.89
2023-05-08T09:27:21.225Z,27.46
2023-05-08T09:30:23.518Z,27.14
2023-05-08T09:33:27.593Z,27.24
2023-05-08T09:36:32.025Z,27.89
2023-05-08T09:39:34.772Z,28.44
2023-05-08T09:42:39.501Z,28.36
2023-05-08T09:45:42.717Z,28.01
2023-05-08T09:48:45.980Z,28.16
2023-05-08T09:51:54.392Z,28.61
2023-05-08T09:55:03.653Z,28.32
2023-05-08T09:58:05.968Z,29.00
2023-05-08T10:01:08.956Z,29.84
2023-05-08T10:04:11.253Z,30.34
2023-05-08T10:07:13.572Z,30.92
2023-05-08T10:10:23.128Z,30.12
2023-05-08T10:13:26.286Z,29.72
2023-05-08T10:16:37.427Z,29.74
2023-05-08T10:19:43.815Z,30.39
2023-05-08T10:22:48.513Z,29.49
2023-05-08T10:25:56.667Z,29.44
2023-05-08T10:28:59.903Z,30.22
2023-05-08T10:32:03.001Z,30.23
2023-05-08T10:35:06.492Z,29.44
2023-05-08T10:38:09.714Z,30.55
2023-05-08T10:41:12.326Z,29.44
2023-05-08T10:44:15.033Z,30.44
2023-05-08T10:47:29.210Z,30.28
2023-05-08T10:51:04.828Z,29.95
2023-05-08T10:54:13.037Z,29.88
2023-05-08T10:57:15.575Z,29.27
2023-05-08T11:00:18.264Z,29.47
2023-05-08T11:03:31.429Z,29.49
2023-05-08T11:06:46.123Z,29.71
2023-05-08T11:09:48.796Z,29.18
2023-05-08T11:12:50.976Z,28.32
2023-05-08T11:15:53.284Z,28.33
2023-05-08T11:19:17.659Z,28.71
2023-05-08T11:22:26.366Z,29.65
2023-05-08T11:25:44.755Z,29.05
2023-05-08T11:28:53.009Z,29.37
2023-05-08T11:31:55.418Z,30.26
2023-05-08T11:34:57.757Z,29.07
2023-05-08T11:38:18.327Z,28.68
2023-05-08T11:41:25.637Z,28.34
2023-05-08T11:44:28.495Z,28.34
2023-05-08T11:47:39.850Z,28.43
2023-05-08T11:50:42.181Z,28.56
2023-05-08T11:53:44.652Z,28.24
2023-05-08T11:56:50.803Z,29.04
2023-05-08T11:59:53.018Z,28.55
2023-05-08T12:02:55.283Z,28.12
2023-05-08T12:05:58.966Z,28.90
2023-05-08T12:09:02.075Z,29.12
2023-05-08T12:12:04.598Z,28.48
2023-05-08T12:15:11.177Z,29.83
2023-05-08T12:18:14.100Z,29.12
2023-05-08T12:21:16.508Z,28.66
2023-05-08T12:24:23.033Z,28.21
2023-05-08T12:27:25.652Z,28.57
2023-05-08T12:30:28.123Z,29.44
2023-05-08T12:33:30.696Z,29.26
2023-05-08T12:36:37.149Z,29.94
2023-05-08T12:39:44.319Z,28.55
2023-05-08T12:42:50.861Z,28.60
2023-05-08T12:45:53.115Z,28.17
2023-05-08T12:49:04.435Z,28.49
2023-05-08T12:52:08.285Z,28.04
2023-05-08T12:55:27.757Z,27.19
2023-05-08T12:58:34.536Z,27.32
2023-05-08T13:01:37.052Z,26.98
2023-05-08T13:04:39.543Z,27.44
2023-05-08T13:07:42.016Z,26.71
2023-05-08T13:10:54.125Z,26.31
2023-05-08T13:13:56.453Z,25.58
2023-05-08T13:16:59.746Z,26.25
2023-05-08T13:20:05.914Z,26.82
2023-05-08T13:23:08.857Z,26.60
2023-05-08T13:26:11.138Z,26.37
2023-05-08T13:29:13.333Z,25.92
2023-05-08T13:32:15.888Z,25.08
2023-05-08T13:35:18.826Z,24.88
2023-05-08T13:38:21.169Z,25.70
2023-05-08T13:41:23.519Z,26.63
2023-05-08T13:44:25.791Z,26.63
2023-05-08T13:47:28.067Z,25.98
2023-05-08T13:50:30.452Z,25.55
2023-05-08T13:53:32.686Z,24.86
2023-05-08T13:56:35.224Z,23.77
2023-05-08T13:59:37.557Z,24.00
2023-05-08T14:02:39.880Z,23.98
2023-05-08T14:05:42.295Z,23.66
2023-05-08T14:08:46.536Z,22.78
2023-05-08T14:11:50.067Z,24.18
2023-05-08T14:14:52.300Z,22.29
2023-05-08T14:17:54.520Z,22.39
2023-05-08T14:20:57.705Z,22.21
2023-05-08T14:24:00.053Z,21.81
2023-05-08T14:27:05.981Z,21.17
2023-05-08T14:30:08.943Z,21.05
2023-05-08T14:33:11.330Z,21.25
2023-05-08T14:36:13.753Z,21.23
2023-05-08T14:39:16.050Z,20.88
2023-05-08T14:42:23.468Z,20.35
2023-05-08T14:45:26.040Z,21.04
2023-05-08T14:48:28.347Z,22.23
2023-05-08T14:51:31.376Z,22.04
2023-05-08T14:54:34.327Z,21.41
2023-05-08T14:57:36.785Z,20.94
2023-05-08T15:00:39.746Z,21.74
2023-05-08T15:03:42.116Z,21.89
2023-05-08T15:06:44.409Z,21.26
2023-05-08T15:09:47.910Z,20.86
2023-05-08T15:12:50.425Z,20.31
2023-05-08T15:15:53.539Z,20.98
2023-05-08T15:18:55.786Z,21.64
2023-05-08T15:21:58.011Z,22.42
2023-05-08T15:25:03.111Z,21.45
2023-05-08T15:28:05.417Z,21.47
2023-05-08T15:31:07.865Z,22.23
2023-05-08T15:34:10.263Z,22.92
2023-05-08T15:37:12.489Z,22.87
2023-05-08T15:40:14.832Z,24.19
2023-05-08T15:43:17.066Z,24.56
2023-05-08T15:46:19.393Z,25.05
2023-05-08T15:49:25.799Z,25.75
2023-05-08T15:52:28.074Z,26.03
2023-05-08T15:55:30.464Z,24.69
2023-05-08T15:58:32.768Z,25.43
2023-05-08T16:01:35.144Z,24.99
2023-05-08T16:04:37.440Z,26.28
2023-05-08T16:07:40.604Z,27.05
2023-05-08T16:10:42.897Z,28.16
2023-05-08T16:13:45.129Z,28.62
2023-05-08T16:16:47.396Z,29.26
2023-05-08T16:19:49.676Z,29.58
2023-05-08T16:22:55.918Z,29.39
2023-05-08T16:25:58.133Z,29.79
2023-05-08T16:29:00.477Z,29.80
2023-05-08T16:32:02.780Z,30.36
2023-05-08T16:35:05.689Z,32.00
2023-05-08T16:38:08.030Z,32.27
2023-05-08T16:41:11.304Z,32.01
2023-05-08T16:44:16.799Z,32.23
2023-05-08T16:47:19.728Z,32.06
2023-05-08T16:50:22.160Z,32.51
2023-05-08T16:53:27.102Z,32.18
2023-05-08T16:56:29.335Z,32.77
2023-05-08T16:59:32.498Z,33.01
2023-05-08T17:02:34.832Z,33.23
2023-05-08T17:05:37.438Z,32.88
2023-05-08T17:08:39.716Z,32.88
2023-05-08T17:11:41.836Z,33.03
2023-05-08T17:14:44.203Z,32.74
2023-05-08T17:17:49.310Z,33.23
2023-05-08T17:20:51.591Z,35.04
2023-05-08T17:23:53.958Z,33.79
2023-05-08T17:26:56.218Z,34.15
2023-05-08T17:29:58.442Z,34.14
2023-05-08T17:33:00.829Z,35.02
2023-05-08T17:36:03.315Z,35.44
2023-05-08T17:39:05.571Z,34.22
2023-05-08T17:42:07.951Z,33.33
2023-05-08T17:45:10.680Z,32.54
2023-05-08T17:48:12.904Z,32.39
2023-05-08T17:51:15.259Z,32.91
2023-05-08T17:54:17.603Z,32.51
2023-05-08T17:57:19.890Z,32.30
2023-05-08T18:00:22.284Z,32.80
2023-05-08T18:03:24.677Z,33.53
2023-05-08T18:06:27.030Z,33.74
2023-05-08T18:09:29.260Z,33.79
2023-05-08T18:12:32.141Z,33.78
2023-05-08T18:15:36.215Z,34.59
2023-05-08T18:18:38.629Z,34.63
2023-05-08T18:21:40.847Z,34.62
2023-05-08T18:24:43.269Z,34.54
2023-05-08T18:27:48.558Z,34.66
2023-05-08T18:30:51.198Z,34.72
2023-05-08T18:33:53.449Z,34.44
2023-05-08T18:36:56.794Z,34.73
2023-05-08T18:40:00.347Z,34.58
2023-05-08T18:43:02.677Z,34.94
2023-05-08T18:46:14.826Z,34.37
2023-05-08T18:49:17.164Z,34.75
2023-05-08T18:52:19.378Z,35.00
2023-05-08T18:55:21.670Z,35.28
2023-05-08T18:58:23.950Z,35.61
2023-05-08T19:01:26.453Z,35.46
2023-05-08T19:04:28.960Z,35.54
2023-05-08T19:07:31.396Z,35.36
2023-05-08T19:10:33.950Z,35.76
2023-05-08T19:13:37.161Z,35.88
2023-05-08T19:16:39.422Z,35.87
2023-05-08T19:19:41.675Z,35.85
2023-05-08T19:22:43.915Z,36.41
2023-05-08T19:25:46.266Z,36.16
2023-05-08T19:28:48.491Z,36.30
2023-05-08T19:31:50.902Z,36.44
2023-05-08T19:34:55.362Z,36.64
2023-05-08T19:37:57.640Z,36.78
2023-05-08T19:40:59.903Z,36.57
2023-05-08T19:44:02.126Z,36.54
2023-05-08T19:47:04.560Z,36.48
2023-05-08T19:50:07.367Z,36.30
2023-05-08T19:53:09.601Z,36.75
2023-05-08T19:56:12.077Z,36.37
2023-05-08T19:59:14.311Z,36.42
2023-05-08T20:02:16.590Z,36.40
2023-05-08T20:05:23.051Z,36.43
2023-05-08T20:08:25.635Z,36.59
2023-05-08T20:11:27.947Z,37.24
2023-05-08T20:14:30.225Z,36.63
2023-05-08T20:17:32.508Z,37.34
2023-05-08T20:20:35.016Z,36.95
2023-05-08T20:23:39.041Z,36.82
2023-05-08T20:26:41.356Z,36.55
2023-05-08T20:29:43.815Z,36.66
2023-05-08T20:32:46.337Z,36.43
2023-05-08T20:35:48.647Z,36.90
2023-05-08T20:38:51.375Z,37.54
2023-05-08T20:41:53.670Z,37.70
2023-05-08T20:44:55.922Z,37.02
2023-05-08T20:47:58.247Z,37.54
2023-05-08T20:51:00.921Z,37.61
2023-05-08T20:54:03.268Z,37.65
2023-05-08T20:57:05.568Z,37.51
2023-05-08T21:00:08.988Z,37.90
2023-05-08T21:03:11.207Z,37.78
2023-05-08T21:06:13.552Z,37.90
2023-05-08T21:09:16.431Z,38.06
2023-05-08T21:12:18.666Z,38.04
2023-05-08T21:15:20.922Z,37.81
2023-05-08T21:18:23.243Z,37.71
2023-05-08T21:21:25.547Z,38.12
2023-05-08T21:24:27.805Z,38.35
2023-05-08T21:27:30.114Z,38.20
2023-05-08T21:30:32.365Z,38.27
2023-05-08T21:33:34.796Z,38.85
2023-05-08T21:36:37.027Z,38.90
2023-05-08T21:39:40.105Z,38.78
2023-05-08T21:42:42.407Z,38.72
2023-05-08T21:45:44.657Z,38.93
2023-05-08T21:48:46.859Z,39.28
2023-05-08T21:51:49.159Z,38.89
2023-05-08T21:54:52.553Z,39.41
2023-05-08T21:57:54.834Z,38.78
2023-05-08T22:00:58.557Z,39.10
2023-05-08T22:04:01.411Z,38.72
2023-05-08T22:07:03.704Z,39.31
2023-05-08T22:10:09.093Z,39.20
2023-05-08T22:13:13.440Z,38.87
2023-05-08T22:16:15.926Z,38.21
2023-05-08T22:19:18.214Z,38.88
2023-05-08T22:22:20.450Z,38.40
2023-05-08T22:25:22.874Z,38.97
2023-05-08T22:28:25.149Z,38.44
2023-05-08T22:31:27.392Z,38.98
2023-05-08T22:34:29.642Z,38.52
2023-05-08T22:37:31.913Z,38.60
2023-05-08T22:40:34.323Z,38.85
2023-05-08T22:43:37.331Z,38.49
2023-05-08T22:46:39.563Z,38.53
2023-05-08T22:49:42.118Z,38.50
2023-05-08T22:52:44.330Z,38.82
2023-05-08T22:55:46.547Z,39.13
2023-05-08T22:58:48.754Z,38.77
2023-05-08T23:01:51.366Z,39.08
2023-05-08T23:04:55.872Z,39.48
2023-05-08T23:07:58.345Z,40.18
2023-05-08T23:11:00.703Z,39.88
2023-05-08T23:14:02.960Z,39.36
2023-05-08T23:17:05.539Z,39.98
2023-05-08T23:20:08.564Z,40.28
2023-05-08T23:23:10.928Z,39.38
2023-05-08T23:26:13.206Z,39.54
2023-05-08T23:29:15.672Z,39.29
2023-05-08T23:32:17.929Z,39.12
2023-05-08T23:35:20.325Z,39.84
2023-05-08T23:38:22.968Z,40.12
2023-05-08T23:41:26.219Z,39.21
2023-05-08T23:44:28.465Z,40.20
2023-05-08T23:47:31.022Z,40.00
2023-05-08T23:50:33.371Z,40.25
2023-05-08T23:53:35.719Z,40.42
2023-05-08T23:56:38.081Z,40.13
2023-05-08T23:59:40.284Z,40.21
